Grand Forks Air Force Base, ND (58204)

8:56 PM CDT on July 27, 2016 (GMT -0500)
Grand Forks Air Force Base | | Change Station

Elev 912 ft 47.96 °N, 97.40 °W | Updated 58 minutes ago

Scattered Clouds
Scattered Clouds
71 °F
Feels Like 71 °F
N
10
Wind Variable Wind from North

Today
High -- | Low -- °F
--% Chance of Precip.
Yesterday
High -- | Low -- °F
Precip. -- in
Pressure 30.09 in
Visibility 10.0 miles
Clouds Scattered Clouds 6000 ft
Dew Point 57 °F
Humidity 61%
Rainfall 0.00 in
Snow Depth Not available.
6:00 AM 9:10 PM
Last Quarter, 37% visible
METAR KRDR 280058Z AUTO 01009KT 10SM SCT060 22/14 A3008 RMK AO2 SLP189 T02160138
Pressure 30.09 in
Visibility 10.0 miles
Clouds Scattered Clouds 6000 ft
Dew Point 57 °F
Humidity 61%
Rainfall 0.00 in
Snow Depth Not available.
6:00 AM 9:10 PM
Last Quarter, 37% visible
METAR KRDR 280058Z AUTO 01009KT 10SM SCT060 22/14 A3008 RMK AO2 SLP189 T02160138

10-Day Weather Forecast

Almanac

Astronomy

Jul. 27, 2016 Rise Set
Actual Time
Civil Twilight
Nautical Twilight
Astronomical Twilight
Moon
Length of Visible Light
Length of Day
Tomorrow will be .
, % of the Moon is Illuminated

Today's Extremes

State Highs State Lows

Community

WunderPhotos

Upload Photos

1,928,005 photos uploaded!

WunderBlog® & News

Nearby

Air Quality

  Air Quality AQ Index Pollutant
Not available.

Snow Depth

Station Depth Elevation

Earthquake Activity

City Distance Mag. Time & Date
Minimum magnitude displayed is 2.5.

Coastal Water Temperatures

Place Temperature

Stations

Nearby Weather Stations

Station Location Temp. Windchill Dew Point Humidity Wind Precip. Elev Updated Type
                   

Watches & Warnings

There are currently no watches in effect.